createdAt,value
2022-10-26T00:01:15.375Z,42.35
2022-10-26T00:03:44.972Z,47.30
2022-10-26T00:06:20.886Z,45.40
2022-10-26T00:08:49.097Z,46.25
2022-10-26T00:11:17.045Z,44.60
2022-10-26T00:13:45.768Z,48.58
2022-10-26T00:16:20.683Z,44.67
2022-10-26T00:18:48.797Z,44.97
2022-10-26T00:21:16.983Z,45.80
2022-10-26T00:23:44.434Z,49.00
2022-10-26T00:26:12.327Z,40.95
2022-10-26T00:28:39.739Z,45.63
2022-10-26T00:31:12.036Z,40.58
2022-10-26T00:33:39.681Z,42.50
2022-10-26T00:36:09.497Z,41.58
2022-10-26T00:38:37.828Z,45.38
2022-10-26T00:41:05.792Z,45.45
2022-10-26T00:43:38.706Z,42.55
2022-10-26T00:46:10.002Z,45.05
2022-10-26T00:48:45.946Z,44.33
2022-10-26T00:51:23.961Z,42.08
2022-10-26T00:53:52.970Z,47.55
2022-10-26T00:56:21.045Z,38.63
2022-10-26T00:58:48.921Z,52.08
2022-10-26T01:01:16.487Z,46.60
2022-10-26T01:03:45.094Z,47.70
2022-10-26T01:06:12.958Z,48.72
2022-10-26T01:08:41.858Z,49.13
2022-10-26T01:11:10.070Z,39.75
2022-10-26T01:13:38.145Z,37.65
2022-10-26T01:16:31.108Z,41.08
2022-10-26T01:19:22.444Z,43.05
2022-10-26T01:24:52.130Z,37.63
2022-10-26T01:27:28.498Z,36.03
2022-10-26T01:30:07.301Z,33.22
2022-10-26T01:32:55.622Z,31.15
2022-10-26T01:35:38.071Z,30.40
2022-10-26T01:38:17.838Z,32.85
2022-10-26T01:41:22.484Z,32.17
2022-10-26T01:44:01.653Z,29.08
2022-10-26T01:46:32.155Z,28.02
2022-10-26T01:49:04.265Z,32.15
2022-10-26T01:51:33.070Z,24.85
2022-10-26T01:54:00.471Z,26.35
2022-10-26T01:56:30.443Z,25.55
2022-10-26T01:59:12.482Z,27.15
2022-10-26T02:01:49.094Z,28.10
2022-10-26T02:04:36.860Z,25.55
2022-10-26T02:07:38.221Z,29.70
2022-10-26T02:12:54.126Z,24.67
2022-10-26T02:15:30.161Z,29.25
2022-10-26T02:18:03.838Z,27.33
2022-10-26T02:20:40.744Z,23.05
2022-10-26T02:23:09.902Z,26.70
2022-10-26T02:25:44.491Z,30.17
2022-10-26T02:28:16.206Z,27.25
2022-10-26T02:30:46.680Z,30.75
2022-10-26T02:33:15.432Z,30.33
2022-10-26T02:35:47.190Z,25.98
2022-10-26T02:38:17.970Z,26.50
2022-10-26T02:40:47.709Z,25.90
2022-10-26T02:43:22.189Z,25.30
2022-10-26T02:45:54.178Z,22.50
2022-10-26T02:48:22.927Z,24.85
2022-10-26T02:51:14.256Z,24.98
2022-10-26T02:56:28.507Z,22.25
2022-10-26T02:59:01.179Z,20.92
2022-10-26T03:01:29.545Z,24.88
2022-10-26T03:04:00.843Z,22.17
2022-10-26T03:06:28.426Z,24.92
2022-10-26T03:08:55.814Z,26.30
2022-10-26T03:11:23.256Z,24.88
2022-10-26T03:13:50.684Z,26.92
2022-10-26T03:16:18.074Z,24.38
2022-10-26T03:18:45.449Z,29.17
2022-10-26T03:21:12.906Z,21.40
2022-10-26T03:23:40.300Z,26.35
2022-10-26T03:26:07.982Z,25.92
2022-10-26T03:28:35.369Z,24.65
2022-10-26T03:31:02.835Z,31.70
2022-10-26T03:33:30.321Z,22.88
2022-10-26T03:35:58.009Z,25.73
2022-10-26T03:38:25.373Z,24.10
2022-10-26T03:40:52.873Z,24.75
2022-10-26T03:43:20.300Z,23.48
2022-10-26T03:45:47.717Z,22.65
2022-10-26T03:48:15.566Z,25.17
2022-10-26T03:50:42.961Z,24.80
2022-10-26T03:53:10.589Z,24.45
2022-10-26T03:55:38.151Z,25.42
2022-10-26T03:58:05.708Z,24.10
2022-10-26T04:00:33.094Z,24.73
2022-10-26T04:03:00.779Z,25.30
2022-10-26T04:05:29.560Z,27.05
2022-10-26T04:08:04.752Z,25.33
2022-10-26T04:10:32.618Z,28.05
2022-10-26T04:13:01.436Z,27.63
2022-10-26T04:15:29.708Z,29.70
2022-10-26T04:18:02.236Z,26.50
2022-10-26T04:20:31.193Z,30.08
2022-10-26T04:23:04.021Z,25.25
2022-10-26T04:25:33.629Z,28.85
2022-10-26T04:28:03.310Z,24.17
2022-10-26T04:30:31.899Z,29.90
2022-10-26T04:32:59.715Z,27.42
2022-10-26T04:35:27.766Z,31.23
2022-10-26T04:38:03.043Z,29.67
2022-10-26T04:40:32.023Z,30.85
2022-10-26T04:42:59.511Z,29.45
2022-10-26T04:45:31.168Z,32.38
2022-10-26T04:48:12.453Z,27.90
2022-10-26T04:50:41.227Z,27.17
2022-10-26T04:53:09.851Z,28.33
2022-10-26T04:55:37.342Z,26.92
2022-10-26T04:58:05.605Z,30.33
2022-10-26T05:00:33.854Z,33.92
2022-10-26T05:03:02.754Z,30.75
2022-10-26T05:05:35.572Z,31.20
2022-10-26T05:08:03.666Z,30.50
2022-10-26T05:10:31.254Z,27.85
2022-10-26T05:13:00.480Z,34.25
2022-10-26T05:15:28.962Z,30.73
2022-10-26T05:17:57.571Z,34.67
2022-10-26T05:20:31.045Z,30.83
2022-10-26T05:23:03.886Z,28.55
2022-10-26T05:25:34.212Z,30.45
2022-10-26T05:28:04.387Z,27.38
2022-10-26T05:30:32.517Z,28.07
2022-10-26T05:33:03.367Z,26.23
2022-10-26T05:35:32.303Z,27.35
2022-10-26T05:38:00.036Z,28.95
2022-10-26T05:40:27.855Z,30.45
2022-10-26T05:43:01.039Z,31.33
2022-10-26T05:45:29.183Z,31.10
2022-10-26T05:47:59.966Z,29.88
2022-10-26T05:50:30.396Z,26.70
2022-10-26T05:52:57.926Z,32.17
2022-10-26T05:55:25.835Z,29.35
2022-10-26T05:57:53.604Z,30.23
2022-10-26T06:00:27.269Z,30.58
2022-10-26T06:03:09.799Z,29.05
2022-10-26T06:05:51.524Z,29.65
2022-10-26T06:08:20.087Z,34.58
2022-10-26T06:10:48.821Z,33.08
2022-10-26T06:13:16.622Z,30.58
2022-10-26T06:16:19.029Z,30.48
2022-10-26T06:18:52.275Z,30.52
2022-10-26T06:21:44.423Z,29.65
2022-10-26T06:24:41.191Z,29.85
2022-10-26T06:27:45.299Z,34.33
2022-10-26T06:30:13.145Z,30.98
2022-10-26T06:32:44.930Z,30.13
2022-10-26T06:35:24.401Z,26.40
2022-10-26T06:37:54.353Z,32.78
2022-10-26T06:40:23.325Z,32.53
2022-10-26T06:42:51.279Z,32.60
2022-10-26T06:45:19.308Z,39.17
2022-10-26T06:47:52.223Z,34.92
2022-10-26T06:50:40.006Z,40.80
2022-10-26T06:53:21.816Z,33.50
2022-10-26T06:55:51.051Z,37.83
2022-10-26T06:58:20.880Z,34.72
2022-10-26T07:00:54.134Z,36.83
2022-10-26T07:03:21.594Z,36.63
2022-10-26T07:05:50.315Z,36.13
2022-10-26T07:08:18.381Z,38.17
2022-10-26T07:10:47.591Z,34.03
2022-10-26T07:13:15.156Z,41.90
2022-10-26T07:15:43.087Z,45.22
2022-10-26T07:18:10.741Z,39.92
2022-10-26T07:20:40.182Z,42.47
2022-10-26T07:23:11.222Z,42.20
2022-10-26T07:25:40.707Z,40.75
2022-10-26T07:28:10.704Z,38.05
2022-10-26T07:30:40.076Z,39.53
2022-10-26T07:33:10.603Z,38.75
2022-10-26T07:35:38.433Z,38.00
2022-10-26T07:38:06.361Z,42.28
2022-10-26T07:40:34.543Z,40.45
2022-10-26T07:43:02.112Z,45.00
2022-10-26T07:45:30.336Z,45.22
2022-10-26T07:47:58.205Z,38.80
2022-10-26T07:50:26.242Z,44.10
2022-10-26T07:52:54.659Z,47.45
2022-10-26T07:55:22.106Z,46.30
2022-10-26T07:57:52.561Z,43.67
2022-10-26T08:00:22.643Z,48.15
2022-10-26T08:02:50.205Z,47.20
2022-10-26T08:05:18.315Z,39.90
2022-10-26T08:07:46.127Z,47.03
2022-10-26T08:10:15.227Z,45.42
2022-10-26T08:12:46.946Z,46.60
2022-10-26T08:15:14.330Z,45.97
2022-10-26T08:17:41.753Z,44.72
2022-10-26T08:20:09.806Z,45.80
2022-10-26T08:22:37.232Z,46.25
2022-10-26T08:25:04.998Z,39.70
2022-10-26T08:27:32.473Z,42.40
2022-10-26T08:29:59.875Z,37.35
2022-10-26T08:32:27.245Z,42.53
2022-10-26T08:34:54.669Z,39.30
2022-10-26T08:37:22.980Z,40.25
2022-10-26T08:39:53.607Z,39.03
2022-10-26T08:42:34.316Z,40.55
2022-10-26T08:45:27.552Z,38.88
2022-10-26T08:48:02.016Z,39.95
2022-10-26T08:50:53.818Z,31.63
2022-10-26T08:53:39.218Z,33.35
2022-10-26T08:56:23.761Z,30.75
2022-10-26T08:58:59.375Z,34.28
2022-10-26T09:01:27.138Z,32.22
2022-10-26T09:03:57.089Z,32.88
2022-10-26T09:06:57.451Z,30.40
2022-10-26T09:09:37.351Z,28.00
2022-10-26T09:12:09.482Z,30.17
2022-10-26T09:15:10.519Z,41.83
2022-10-26T09:17:52.995Z,26.25
2022-10-26T09:20:50.972Z,30.20
2022-10-26T09:23:30.814Z,27.58
2022-10-26T09:26:01.278Z,32.30
2022-10-26T09:28:37.503Z,27.88
2022-10-26T09:31:05.570Z,29.83
2022-10-26T09:33:39.526Z,29.00
2022-10-26T09:36:15.909Z,24.42
2022-10-26T09:39:10.768Z,27.15
2022-10-26T09:42:05.532Z,26.60
2022-10-26T09:44:42.839Z,26.65
2022-10-26T09:47:26.839Z,29.30
2022-10-26T09:50:01.399Z,25.73
2022-10-26T09:52:28.856Z,25.33
2022-10-26T09:54:56.418Z,23.85
2022-10-26T09:57:24.879Z,24.02
2022-10-26T09:59:55.799Z,22.13
2022-10-26T10:02:38.480Z,19.15
2022-10-26T10:05:50.786Z,21.75
2022-10-26T10:08:23.543Z,17.98
2022-10-26T10:10:58.810Z,23.08
2022-10-26T10:13:29.858Z,17.90
2022-10-26T10:16:05.846Z,16.85
2022-10-26T10:18:34.250Z,17.52
2022-10-26T10:21:02.392Z,14.07
2022-10-26T10:23:35.929Z,17.50
2022-10-26T10:26:11.087Z,15.43
2022-10-26T10:28:40.703Z,17.63
2022-10-26T10:34:50.845Z,14.25
2022-10-26T10:37:42.292Z,13.32
2022-10-26T10:40:18.968Z,12.35
2022-10-26T10:42:48.093Z,12.00
2022-10-26T10:49:05.512Z,13.80
2022-10-26T10:51:39.883Z,10.38
2022-10-26T10:54:23.701Z,12.15
2022-10-26T10:56:55.850Z,11.95
2022-10-26T10:59:40.580Z,14.48
2022-10-26T11:02:43.324Z,13.10
2022-10-26T11:05:33.912Z,11.82
2022-10-26T11:08:15.978Z,11.82
2022-10-26T11:10:50.521Z,17.77
2022-10-26T11:13:24.217Z,20.45
2022-10-26T11:15:58.645Z,10.68
2022-10-26T11:18:28.701Z,10.70
2022-10-26T11:21:03.221Z,11.23
2022-10-26T11:23:50.227Z,13.65
2022-10-26T11:26:43.661Z,12.40
2022-10-26T11:29:48.567Z,16.80
2022-10-26T11:32:50.752Z,11.05
2022-10-26T11:35:27.478Z,11.18
2022-10-26T11:38:45.289Z,11.48
2022-10-26T11:41:35.232Z,11.82
2022-10-26T11:44:51.819Z,10.82
2022-10-26T11:47:28.304Z,13.35
2022-10-26T11:50:31.025Z,11.48
2022-10-26T11:53:11.961Z,11.18
2022-10-26T11:55:41.172Z,10.43
2022-10-26T11:58:11.986Z,9.90
2022-10-26T12:01:10.243Z,12.25
2022-10-26T12:03:45.738Z,9.73
2022-10-26T12:06:17.451Z,9.73
2022-10-26T12:08:56.329Z,9.05
2022-10-26T12:11:29.552Z,10.25
2022-10-26T12:17:05.571Z,7.97
2022-10-26T12:19:47.662Z,11.30
2022-10-26T12:22:21.924Z,9.00
2022-10-26T12:25:15.474Z,10.52
2022-10-26T12:27:43.150Z,9.15
2022-10-26T12:30:19.470Z,7.60
2022-10-26T12:32:48.819Z,8.13
2022-10-26T12:35:35.954Z,6.50
2022-10-26T12:38:21.728Z,8.65
2022-10-26T12:41:07.634Z,8.63
2022-10-26T12:43:39.098Z,9.45
2022-10-26T12:46:15.369Z,12.80
2022-10-26T12:48:53.996Z,10.02
2022-10-26T12:51:21.854Z,8.63
2022-10-26T12:54:25.301Z,8.82
2022-10-26T12:57:14.070Z,8.52
2022-10-26T13:00:11.055Z,10.73
2022-10-26T13:02:43.987Z,7.40
2022-10-26T13:05:16.978Z,9.63
2022-10-26T13:07:44.718Z,9.10
2022-10-26T13:10:12.178Z,11.52
2022-10-26T13:13:05.588Z,8.93
2022-10-26T13:15:53.517Z,9.30
2022-10-26T13:18:22.722Z,9.25
2022-10-26T13:21:13.602Z,12.43
2022-10-26T13:23:57.088Z,10.88
2022-10-26T13:26:27.619Z,10.43
2022-10-26T13:29:00.761Z,11.68
2022-10-26T13:31:33.322Z,11.25
2022-10-26T13:34:06.860Z,16.35
2022-10-26T13:36:39.295Z,51.20
2022-10-26T13:39:13.809Z,15.18
2022-10-26T13:41:45.558Z,12.55
2022-10-26T13:44:39.005Z,16.45
2022-10-26T13:47:17.997Z,14.07
2022-10-26T13:49:51.361Z,19.92
2022-10-26T13:52:27.188Z,15.95
2022-10-26T13:55:00.253Z,15.20
2022-10-26T13:57:40.520Z,14.35
2022-10-26T14:00:19.673Z,10.37
2022-10-26T14:02:47.449Z,12.77
2022-10-26T14:05:18.200Z,11.30
2022-10-26T14:07:50.372Z,14.40
2022-10-26T14:10:38.529Z,13.63
2022-10-26T14:13:13.218Z,17.50
2022-10-26T14:15:44.948Z,13.80
2022-10-26T14:18:23.127Z,16.60
2022-10-26T14:21:00.243Z,16.30
2022-10-26T14:23:29.130Z,19.20
2022-10-26T14:25:59.048Z,16.05
2022-10-26T14:28:29.714Z,19.58
2022-10-26T14:31:40.406Z,24.20
2022-10-26T14:34:10.450Z,19.10
2022-10-26T14:36:46.818Z,24.58
2022-10-26T14:39:24.849Z,18.80
2022-10-26T14:41:54.629Z,18.75
2022-10-26T14:44:24.681Z,17.38
2022-10-26T14:46:54.660Z,20.70
2022-10-26T14:49:27.579Z,22.48
2022-10-26T14:52:00.243Z,17.15
2022-10-26T14:54:30.304Z,24.98
2022-10-26T14:56:58.212Z,19.60
2022-10-26T14:59:25.711Z,20.95
2022-10-26T15:02:11.331Z,20.05
2022-10-26T15:04:41.490Z,19.55
2022-10-26T15:07:19.612Z,30.90
2022-10-26T15:09:51.802Z,20.95
2022-10-26T15:12:38.488Z,19.65
2022-10-26T15:17:56.809Z,15.70
2022-10-26T15:20:26.946Z,15.82
2022-10-26T15:23:04.138Z,18.40
2022-10-26T15:25:34.305Z,15.38
2022-10-26T15:28:20.964Z,14.23
2022-10-26T15:31:05.329Z,13.50
2022-10-26T15:33:34.467Z,21.38
2022-10-26T15:36:18.489Z,18.80
2022-10-26T15:38:48.344Z,37.13
2022-10-26T15:41:23.160Z,24.35
2022-10-26T15:43:52.693Z,15.10
2022-10-26T15:46:21.543Z,13.40
2022-10-26T15:49:00.556Z,12.07
2022-10-26T15:51:30.107Z,11.10
2022-10-26T15:53:58.826Z,11.63
2022-10-26T15:56:26.994Z,24.10
2022-10-26T15:58:57.075Z,21.60
2022-10-26T16:01:31.626Z,18.27
2022-10-26T16:03:59.190Z,15.05
2022-10-26T16:06:35.461Z,11.43
2022-10-26T16:09:06.620Z,12.18
2022-10-26T16:14:03.788Z,11.82
2022-10-26T16:16:32.212Z,10.83
2022-10-26T16:19:18.802Z,13.18
2022-10-26T16:21:50.742Z,24.17
2022-10-26T16:24:18.249Z,25.02
2022-10-26T16:26:46.072Z,20.98
2022-10-26T16:29:13.891Z,21.27
2022-10-26T16:31:41.359Z,20.05
2022-10-26T16:34:09.033Z,18.48
2022-10-26T16:36:38.258Z,18.55
2022-10-26T16:39:06.843Z,19.88
2022-10-26T16:41:34.827Z,16.55
2022-10-26T16:44:03.027Z,14.65
2022-10-26T16:46:31.002Z,14.57
2022-10-26T16:49:00.039Z,17.33
2022-10-26T16:51:28.454Z,12.95
2022-10-26T16:53:57.327Z,14.05
2022-10-26T16:56:28.454Z,14.48
2022-10-26T17:01:24.325Z,15.90
2022-10-26T17:03:53.053Z,18.42
2022-10-26T17:06:20.975Z,16.15
2022-10-26T17:08:48.393Z,17.95
2022-10-26T17:11:21.273Z,23.35
2022-10-26T17:13:53.058Z,27.38
2022-10-26T17:16:22.297Z,32.20
2022-10-26T17:18:49.965Z,30.02
2022-10-26T17:21:19.907Z,31.67
2022-10-26T17:23:47.409Z,35.08
2022-10-26T17:26:15.222Z,31.55
2022-10-26T17:28:43.223Z,20.90
2022-10-26T17:31:16.204Z,20.52
2022-10-26T17:33:45.106Z,20.48
2022-10-26T17:36:14.296Z,20.30
2022-10-26T17:38:43.578Z,21.10
2022-10-26T17:41:17.038Z,22.13
2022-10-26T17:43:47.836Z,24.20
2022-10-26T17:46:18.468Z,28.48
2022-10-26T17:48:47.767Z,28.75
2022-10-26T17:51:21.690Z,25.88
2022-10-26T17:53:51.303Z,24.52
2022-10-26T17:56:32.623Z,21.63
2022-10-26T17:59:03.394Z,22.60
2022-10-26T18:01:32.265Z,38.65
2022-10-26T18:04:01.336Z,47.33
2022-10-26T18:06:33.258Z,51.60
2022-10-26T18:09:01.132Z,32.65
2022-10-26T18:11:29.378Z,29.17
2022-10-26T18:13:59.789Z,39.17
2022-10-26T18:16:28.732Z,49.22
2022-10-26T18:19:02.294Z,46.60
2022-10-26T18:21:35.116Z,54.53
2022-10-26T18:24:03.234Z,52.63
2022-10-26T18:26:31.715Z,40.70
2022-10-26T18:29:01.773Z,27.77
2022-10-26T18:31:32.543Z,26.40
2022-10-26T18:34:03.832Z,23.63
2022-10-26T18:36:31.859Z,25.73
2022-10-26T18:38:59.694Z,19.92
2022-10-26T18:41:27.963Z,21.42
2022-10-26T18:43:59.831Z,24.45
2022-10-26T18:46:29.998Z,22.25
2022-10-26T18:48:59.380Z,22.03
2022-10-26T18:51:31.193Z,28.00
2022-10-26T18:53:59.621Z,31.98
2022-10-26T18:56:27.448Z,33.50
2022-10-26T18:58:59.664Z,30.70
2022-10-26T19:01:35.613Z,24.63
2022-10-26T19:04:08.271Z,27.77
2022-10-26T19:06:38.437Z,26.80
2022-10-26T19:09:07.973Z,25.23
2022-10-26T19:11:35.715Z,35.55
2022-10-26T19:14:03.411Z,26.77
2022-10-26T19:16:45.314Z,28.55
2022-10-26T19:19:13.561Z,29.10
2022-10-26T19:21:41.140Z,33.55
2022-10-26T19:24:13.398Z,27.42
2022-10-26T19:26:43.425Z,29.13
2022-10-26T19:29:17.392Z,26.90
2022-10-26T19:31:46.187Z,25.92
2022-10-26T19:34:15.722Z,28.10
2022-10-26T19:36:47.401Z,33.10
2022-10-26T19:39:16.689Z,26.33
2022-10-26T19:41:45.013Z,27.48
2022-10-26T19:44:15.826Z,28.35
2022-10-26T19:46:44.150Z,30.40
2022-10-26T19:49:13.061Z,31.77
2022-10-26T19:51:40.817Z,31.20
2022-10-26T19:54:08.680Z,32.33
2022-10-26T19:56:37.515Z,25.98
2022-10-26T19:59:05.923Z,29.75
2022-10-26T20:01:34.004Z,26.08
2022-10-26T20:04:02.867Z,26.58
2022-10-26T20:06:31.155Z,28.40
2022-10-26T20:09:00.073Z,25.60
2022-10-26T20:11:28.088Z,27.88
2022-10-26T20:13:56.585Z,27.95
2022-10-26T20:16:24.590Z,25.90
2022-10-26T20:18:52.017Z,25.85
2022-10-26T20:21:19.628Z,28.15
2022-10-26T20:23:47.118Z,28.83
2022-10-26T20:26:18.368Z,28.33
2022-10-26T20:28:49.350Z,29.27
2022-10-26T20:31:16.779Z,28.85
2022-10-26T20:33:44.251Z,27.13
2022-10-26T20:36:11.705Z,25.60
2022-10-26T20:38:40.050Z,24.63
2022-10-26T20:41:12.212Z,25.65
2022-10-26T20:43:40.970Z,27.25
2022-10-26T20:46:22.841Z,26.38
2022-10-26T20:48:51.620Z,29.92
2022-10-26T20:51:47.542Z,34.47
2022-10-26T20:54:45.279Z,24.40
2022-10-26T20:57:19.378Z,28.15
2022-10-26T20:59:52.887Z,33.95
2022-10-26T21:02:22.379Z,29.35
2022-10-26T21:04:49.899Z,29.10
2022-10-26T21:07:17.385Z,39.17
2022-10-26T21:09:44.805Z,36.05
2022-10-26T21:12:12.191Z,31.63
2022-10-26T21:14:41.082Z,34.42
2022-10-26T21:17:09.114Z,31.95
2022-10-26T21:19:37.154Z,27.75
2022-10-26T21:22:04.525Z,28.92
2022-10-26T21:24:31.969Z,29.50
2022-10-26T21:26:59.409Z,32.65
2022-10-26T21:29:26.799Z,32.80
2022-10-26T21:31:54.198Z,30.17
2022-10-26T21:34:21.578Z,29.38
2022-10-26T21:36:49.133Z,29.10
2022-10-26T21:39:16.551Z,25.23
2022-10-26T21:41:44.089Z,35.33
2022-10-26T21:44:24.671Z,28.23
2022-10-26T21:46:58.888Z,33.08
2022-10-26T21:49:26.350Z,28.55
2022-10-26T21:51:53.853Z,33.08
2022-10-26T21:54:21.345Z,47.45
2022-10-26T21:56:48.761Z,30.30
2022-10-26T21:59:16.159Z,26.40
2022-10-26T22:01:43.573Z,28.02
2022-10-26T22:04:11.668Z,30.83
2022-10-26T22:06:39.050Z,26.88
2022-10-26T22:09:06.684Z,27.67
2022-10-26T22:11:34.077Z,35.05
2022-10-26T22:14:01.697Z,28.45
2022-10-26T22:16:31.298Z,30.17
2022-10-26T22:19:04.054Z,32.53
2022-10-26T22:21:35.839Z,29.15
2022-10-26T22:24:03.630Z,32.40
2022-10-26T22:26:33.588Z,25.08
2022-10-26T22:29:01.191Z,29.48
2022-10-26T22:34:13.365Z,28.48
2022-10-26T22:36:40.919Z,29.20
2022-10-26T22:39:08.325Z,32.58
2022-10-26T22:41:35.795Z,29.02
2022-10-26T22:44:03.244Z,30.15
2022-10-26T22:46:30.763Z,29.85
2022-10-26T22:49:00.579Z,24.77
2022-10-26T22:51:31.242Z,31.13
2022-10-26T22:54:01.889Z,31.05
2022-10-26T22:56:31.343Z,29.30
2022-10-26T22:58:58.834Z,32.55
2022-10-26T23:01:31.428Z,27.23
2022-10-26T23:03:59.850Z,33.80
2022-10-26T23:06:29.687Z,29.85
2022-10-26T23:08:57.435Z,31.13
2022-10-26T23:11:27.103Z,31.15
2022-10-26T23:13:58.039Z,28.05
2022-10-26T23:16:26.097Z,26.30
2022-10-26T23:18:53.910Z,29.52
2022-10-26T23:21:24.084Z,29.98
2022-10-26T23:23:51.644Z,33.23
2022-10-26T23:26:21.702Z,34.90
2022-10-26T23:28:49.606Z,32.05
2022-10-26T23:31:20.084Z,29.42
2022-10-26T23:33:49.540Z,34.17
2022-10-26T23:36:17.102Z,35.42
2022-10-26T23:38:44.508Z,28.13
2022-10-26T23:41:13.098Z,32.45
2022-10-26T23:43:41.221Z,33.78
2022-10-26T23:46:08.731Z,30.85
2022-10-26T23:48:36.972Z,32.67
2022-10-26T23:51:04.568Z,31.10
2022-10-26T23:53:32.064Z,30.95
2022-10-26T23:55:59.510Z,30.85
2022-10-26T23:58:26.946Z,38.60
